createdAt,value
2022-08-10T00:01:44.931Z,102215.03
2022-08-10T00:04:21.530Z,102218.06
2022-08-10T00:06:51.418Z,102219.38
2022-08-10T00:09:21.401Z,102221.53
2022-08-10T00:11:49.717Z,102223.00
2022-08-10T00:14:17.982Z,102228.91
2022-08-10T00:16:46.292Z,102229.91
2022-08-10T00:19:16.668Z,102220.75
2022-08-10T00:21:47.595Z,102213.06
2022-08-10T00:24:16.115Z,102218.78
2022-08-10T00:28:01.472Z,102211.69
2022-08-10T00:29:34.694Z,102217.31
2022-08-10T00:32:03.083Z,102219.25
2022-08-10T00:34:33.066Z,102225.28
2022-08-10T00:37:01.730Z,102226.28
2022-08-10T00:39:35.864Z,102221.63
2022-08-10T00:42:08.237Z,102224.06
2022-08-10T00:44:37.936Z,102213.97
2022-08-10T00:47:06.739Z,102220.25
2022-08-10T00:49:35.589Z,102215.94
2022-08-10T00:52:05.015Z,102211.44
2022-08-10T00:54:33.610Z,102213.72
2022-08-10T00:57:16.970Z,102204.00
2022-08-10T00:59:59.114Z,102204.28
2022-08-10T01:02:29.555Z,102209.69
2022-08-10T01:05:02.271Z,102202.88
2022-08-10T01:08:02.048Z,102197.75
2022-08-10T01:10:42.770Z,102206.47
2022-08-10T01:13:18.224Z,102205.31
2022-08-10T01:15:57.117Z,102204.06
2022-08-10T01:18:37.786Z,102205.75
2022-08-10T01:21:54.168Z,102204.31
2022-08-10T01:25:00.320Z,102208.78
2022-08-10T01:27:34.158Z,102215.31
2022-08-10T01:30:07.984Z,102212.19
2022-08-10T01:32:44.199Z,102212.19
2022-08-10T01:35:18.569Z,102206.59
2022-08-10T01:37:52.646Z,102206.91
2022-08-10T01:40:26.791Z,102206.75
2022-08-10T01:43:07.927Z,102204.91
2022-08-10T01:45:45.593Z,102211.91
2022-08-10T01:48:31.667Z,102199.31
2022-08-10T01:51:10.945Z,102204.06
2022-08-10T01:53:44.212Z,102202.63
2022-08-10T01:56:15.696Z,102198.66
2022-08-10T01:58:46.311Z,102193.38
2022-08-10T02:01:19.997Z,102199.50
2022-08-10T02:04:04.344Z,102196.63
2022-08-10T02:06:36.969Z,102197.78
2022-08-10T02:09:07.865Z,102191.22
2022-08-10T02:12:07.735Z,102187.97
2022-08-10T02:14:32.952Z,102196.78
2022-08-10T02:17:06.787Z,102192.66
2022-08-10T02:19:37.712Z,102194.94
2022-08-10T02:22:36.059Z,102194.25
2022-08-10T02:24:57.512Z,102191.81
2022-08-10T02:27:29.287Z,102189.25
2022-08-10T02:29:59.406Z,102186.69
2022-08-10T02:32:37.893Z,102184.09
2022-08-10T02:35:21.972Z,102186.69
2022-08-10T02:37:54.173Z,102194.09
2022-08-10T02:45:18.298Z,102188.66
2022-08-10T02:45:27.644Z,102187.38
2022-08-10T02:46:18.286Z,102185.22
2022-08-10T02:48:56.307Z,102180.94
2022-08-10T02:52:07.541Z,102174.38
2022-08-10T02:54:23.909Z,102171.09
2022-08-10T02:56:56.785Z,102175.66
2022-08-10T02:59:40.168Z,102168.53
2022-08-10T03:02:12.087Z,102168.81
2022-08-10T03:04:55.627Z,102172.25
2022-08-10T03:07:43.281Z,102173.22
2022-08-10T03:10:17.809Z,102173.94
2022-08-10T03:12:50.611Z,102174.97
2022-08-10T03:15:21.080Z,102164.13
2022-08-10T03:17:57.479Z,102167.53
2022-08-10T03:20:36.830Z,102168.22
2022-08-10T03:23:11.227Z,102167.28
2022-08-10T03:25:40.214Z,102163.69
2022-08-10T03:28:10.304Z,102161.69
2022-08-10T03:30:47.045Z,102162.28
2022-08-10T03:33:16.884Z,102159.56
2022-08-10T03:36:41.692Z,102159.56
2022-08-10T03:38:35.524Z,102155.28
2022-08-10T03:41:05.547Z,102158.25
2022-08-10T03:43:35.732Z,102157.56
2022-08-10T03:46:09.596Z,102151.28
2022-08-10T03:48:48.874Z,102156.84
2022-08-10T03:51:21.696Z,102150.88
2022-08-10T03:54:04.335Z,102158.97
2022-08-10T03:56:36.224Z,102161.84
2022-08-10T03:59:05.856Z,102164.13
2022-08-10T04:02:45.385Z,102174.63
2022-08-10T04:04:25.376Z,102168.78
2022-08-10T04:07:00.368Z,102169.19
2022-08-10T04:09:42.980Z,102176.47
2022-08-10T04:12:20.366Z,102177.72
2022-08-10T04:14:51.927Z,102180.44
2022-08-10T04:18:02.968Z,102181.69
2022-08-10T04:20:19.622Z,102165.59
2022-08-10T04:22:53.656Z,102169.03
2022-08-10T04:25:23.273Z,102169.69
2022-08-10T04:27:52.250Z,102170.94
2022-08-10T04:30:20.764Z,102171.25
2022-08-10T04:32:55.198Z,102171.88
2022-08-10T04:35:25.287Z,102166.19
2022-08-10T04:37:58.045Z,102165.84
2022-08-10T04:40:29.092Z,102162.44
2022-08-10T04:43:05.785Z,102163.69
2022-08-10T04:45:49.888Z,102157.13
2022-08-10T04:48:42.400Z,102165.50
2022-08-10T04:51:16.869Z,102170.44
2022-08-10T04:54:05.024Z,102173.41
2022-08-10T04:56:38.766Z,102178.09
2022-08-10T04:59:08.533Z,102177.34
2022-08-10T05:02:30.168Z,102174.41
2022-08-10T05:04:37.515Z,102176.00
2022-08-10T05:07:09.144Z,102183.09
2022-08-10T05:10:02.556Z,102180.78
2022-08-10T05:12:28.124Z,102182.75
2022-08-10T05:14:56.648Z,102186.19
2022-08-10T05:17:27.997Z,102184.22
2022-08-10T05:20:03.719Z,102184.22
2022-08-10T05:22:38.451Z,102180.78
2022-08-10T05:25:10.346Z,102190.16
2022-08-10T05:27:39.108Z,102187.31
2022-08-10T05:30:09.458Z,102195.31
2022-08-10T05:32:57.872Z,102198.47
2022-08-10T05:35:27.614Z,102209.84
2022-08-10T05:38:09.087Z,102198.53
2022-08-10T05:40:46.253Z,102197.72
2022-08-10T05:43:16.957Z,102186.75
2022-08-10T05:46:19.636Z,102192.06
2022-08-10T05:48:56.965Z,102192.66
2022-08-10T05:51:24.563Z,102196.00
2022-08-10T05:54:02.862Z,102182.19
2022-08-10T05:56:54.192Z,102186.06
2022-08-10T06:00:11.145Z,102194.75
2022-08-10T06:02:30.898Z,102189.34
2022-08-10T06:05:11.862Z,102185.78
2022-08-10T06:07:42.698Z,102193.03
2022-08-10T06:10:28.541Z,102191.34
2022-08-10T06:13:29.653Z,102194.19
2022-08-10T06:16:06.946Z,102186.19
2022-08-10T06:18:37.041Z,102195.03
2022-08-10T06:21:06.148Z,102194.63
2022-08-10T06:23:35.807Z,102205.94
2022-08-10T06:26:10.103Z,102198.53
2022-08-10T06:29:01.953Z,102191.72
2022-08-10T06:31:46.994Z,102188.94
2022-08-10T06:34:20.572Z,102181.97
2022-08-10T06:36:49.450Z,102174.84
2022-08-10T06:39:32.976Z,102187.25
2022-08-10T06:42:14.792Z,102184.09
2022-08-10T06:44:55.370Z,102181.94
2022-08-10T06:47:27.927Z,102183.78
2022-08-10T06:49:59.646Z,102185.31
2022-08-10T06:52:32.180Z,102181.72
2022-08-10T06:55:05.524Z,102176.47
2022-08-10T06:57:39.995Z,102175.44
2022-08-10T07:00:11.743Z,102173.94
2022-08-10T07:02:48.117Z,102175.91
2022-08-10T07:05:21.382Z,102175.88
2022-08-10T07:07:52.470Z,102171.81
2022-08-10T07:10:23.782Z,102176.63
2022-08-10T07:13:00.122Z,102167.13
2022-08-10T07:15:59.766Z,102168.47
2022-08-10T07:18:22.106Z,102167.91
2022-08-10T07:20:54.170Z,102171.09
2022-08-10T07:23:57.814Z,102169.31
2022-08-10T07:26:15.437Z,102166.59
2022-08-10T07:28:47.995Z,102163.91
2022-08-10T07:31:54.895Z,102167.13
2022-08-10T07:34:10.709Z,102163.81
2022-08-10T07:36:41.841Z,102166.06
2022-08-10T07:39:11.698Z,102161.53
2022-08-10T07:41:42.999Z,102167.03
2022-08-10T07:44:13.107Z,102159.25
2022-08-10T07:46:53.831Z,102161.47
2022-08-10T07:49:27.807Z,102165.09
2022-08-10T07:51:57.548Z,102164.47
2022-08-10T07:54:29.410Z,102169.59
2022-08-10T07:57:05.357Z,102168.31
2022-08-10T07:59:39.134Z,102167.31
2022-08-10T08:02:14.878Z,102160.69
2022-08-10T08:04:50.298Z,102155.78
2022-08-10T08:07:21.445Z,102158.34
2022-08-10T08:09:57.997Z,102161.28
2022-08-10T08:12:31.464Z,102153.13
2022-08-10T08:16:14.268Z,102155.50
2022-08-10T08:18:00.553Z,102148.19
2022-08-10T08:20:30.422Z,102156.50
2022-08-10T08:24:06.698Z,102152.25
2022-08-10T08:25:50.249Z,102159.94
2022-08-10T08:28:19.284Z,102151.06
2022-08-10T08:30:49.200Z,102155.78
2022-08-10T08:33:42.145Z,102140.56
2022-08-10T08:36:10.659Z,102147.19
2022-08-10T08:38:40.052Z,102146.78
2022-08-10T08:41:30.374Z,102131.88
2022-08-10T08:44:07.439Z,102143.91
2022-08-10T08:46:59.492Z,102130.69
2022-08-10T08:50:05.765Z,102132.81
2022-08-10T08:52:53.653Z,102141.25
2022-08-10T08:55:55.201Z,102131.63
2022-08-10T08:58:38.428Z,102132.53
2022-08-10T09:01:23.403Z,102133.78
2022-08-10T09:04:25.569Z,102132.56
2022-08-10T09:07:39.508Z,102120.63
2022-08-10T09:10:08.258Z,102118.56
2022-08-10T09:12:49.229Z,102119.78
2022-08-10T09:15:40.427Z,102118.28
2022-08-10T09:18:21.101Z,102120.50
2022-08-10T09:20:57.463Z,102107.88
2022-08-10T09:24:05.208Z,102109.44
2022-08-10T09:26:43.064Z,102110.25
2022-08-10T09:29:14.650Z,102107.66
2022-08-10T09:32:54.310Z,102108.34
2022-08-10T09:36:22.444Z,102106.53
2022-08-10T09:38:02.271Z,102097.59
2022-08-10T09:41:00.641Z,102103.41
2022-08-10T09:43:42.325Z,102100.78
2022-08-10T09:46:33.599Z,102102.72
2022-08-10T09:49:17.305Z,102102.97
2022-08-10T09:52:03.683Z,102102.38
2022-08-10T09:54:48.979Z,102093.53
2022-08-10T09:57:44.313Z,102096.56
2022-08-10T10:00:19.165Z,102091.34
2022-08-10T10:03:06.536Z,102081.88
2022-08-10T10:05:51.404Z,102087.59
2022-08-10T10:08:33.827Z,102076.03
2022-08-10T10:11:08.960Z,102080.09
2022-08-10T10:14:03.121Z,102078.88
2022-08-10T10:17:01.358Z,102076.63
2022-08-10T10:19:44.735Z,102068.22
2022-08-10T10:22:38.312Z,102071.19
2022-08-10T10:25:19.738Z,102063.81
2022-08-10T10:28:01.481Z,102070.81
2022-08-10T10:30:40.252Z,102071.28
2022-08-10T10:33:14.954Z,102066.88
2022-08-10T10:35:52.378Z,102065.81
2022-08-10T10:38:24.394Z,102062.84
2022-08-10T10:41:03.327Z,102067.06
2022-08-10T10:43:43.996Z,102072.13
2022-08-10T10:46:28.033Z,102066.66
2022-08-10T10:49:04.865Z,102067.28
2022-08-10T10:51:39.977Z,102062.22
2022-08-10T10:54:13.183Z,102060.28
2022-08-10T10:56:53.667Z,102065.56
2022-08-10T10:59:55.739Z,102059.22
2022-08-10T11:02:39.000Z,102068.53
2022-08-10T11:05:20.488Z,102059.81
2022-08-10T11:08:01.186Z,102054.75
2022-08-10T11:10:46.273Z,102061.94
2022-08-10T11:14:25.410Z,102055.97
2022-08-10T11:16:31.630Z,102051.72
2022-08-10T11:19:12.038Z,102054.25
2022-08-10T11:21:56.234Z,102044.00
2022-08-10T11:24:48.051Z,102045.22
2022-08-10T11:27:29.958Z,102039.47
2022-08-10T11:30:07.450Z,102037.50
2022-08-10T11:32:54.918Z,102039.16
2022-08-10T11:35:35.020Z,102028.75
2022-08-10T11:38:31.925Z,102023.41
2022-08-10T11:42:06.137Z,102017.00
2022-08-10T11:44:19.088Z,102029.72
2022-08-10T11:46:54.971Z,102022.03
2022-08-10T11:49:32.470Z,102021.09
2022-08-10T11:52:08.104Z,102021.75
2022-08-10T11:54:43.697Z,102014.47
2022-08-10T11:57:13.924Z,102010.41
2022-08-10T11:59:59.582Z,102019.31
2022-08-10T12:02:34.638Z,102008.47
2022-08-10T12:05:08.670Z,102015.63
2022-08-10T12:10:03.972Z,102012.81
2022-08-10T12:10:36.397Z,102008.69
2022-08-10T12:14:19.757Z,102008.84
2022-08-10T12:16:50.728Z,102015.13
2022-08-10T12:19:25.602Z,102008.00
2022-08-10T12:22:05.609Z,102006.88
2022-08-10T12:24:41.879Z,102001.06
2022-08-10T12:27:15.531Z,101999.66
2022-08-10T12:29:51.047Z,102010.66
2022-08-10T12:32:28.553Z,102007.41
2022-08-10T12:35:02.791Z,102004.34
2022-08-10T12:37:37.046Z,102001.25
2022-08-10T12:40:34.415Z,101993.56
2022-08-10T12:44:03.999Z,101986.75
2022-08-10T12:46:06.770Z,101992.16
2022-08-10T12:48:43.044Z,101991.03
2022-08-10T12:51:18.976Z,101986.84
2022-08-10T12:53:55.082Z,101990.25
2022-08-10T12:56:29.364Z,101988.59
2022-08-10T12:59:01.698Z,101981.63
2022-08-10T13:02:07.438Z,101990.47
2022-08-10T13:04:33.972Z,101983.25
2022-08-10T13:07:04.377Z,101979.19
2022-08-10T13:09:56.210Z,101974.00
2022-08-10T13:12:44.678Z,101975.56
2022-08-10T13:15:45.225Z,101966.78
2022-08-10T13:18:18.767Z,101966.78
2022-08-10T13:20:53.025Z,101953.16
2022-08-10T13:23:25.070Z,101953.97
2022-08-10T13:25:56.411Z,101955.63
2022-08-10T13:28:40.116Z,101953.06
2022-08-10T13:31:18.253Z,101953.66
2022-08-10T13:34:40.260Z,101954.59
2022-08-10T13:36:41.890Z,101948.72
2022-08-10T13:39:14.133Z,101947.69
2022-08-10T13:41:45.505Z,101935.72
2022-08-10T13:44:21.649Z,101935.06
2022-08-10T13:46:53.173Z,101932.88
2022-08-10T13:49:22.469Z,101931.72
2022-08-10T13:51:54.372Z,101935.34
2022-08-10T13:54:28.673Z,101933.38
2022-08-10T13:56:58.087Z,101916.00
2022-08-10T14:00:36.349Z,101918.19
2022-08-10T14:02:37.537Z,101914.78
2022-08-10T14:05:08.375Z,101920.72
2022-08-10T14:07:45.163Z,101917.06
2022-08-10T14:11:04.110Z,101917.25
2022-08-10T14:13:27.910Z,101903.09
2022-08-10T14:15:58.797Z,101906.81
2022-08-10T14:18:27.984Z,101902.84
2022-08-10T14:21:00.098Z,101902.66
2022-08-10T14:23:28.418Z,101897.50
2022-08-10T14:26:03.116Z,101905.44
2022-08-10T14:28:37.364Z,101904.81
2022-08-10T14:31:10.911Z,101899.53
2022-08-10T14:33:42.823Z,101894.88
2022-08-10T14:36:19.159Z,101893.38
2022-08-10T14:38:55.780Z,101892.44
2022-08-10T14:42:01.084Z,101899.94
2022-08-10T14:44:19.661Z,101898.94
2022-08-10T14:46:55.718Z,101882.28
2022-08-10T14:49:27.300Z,101888.31
2022-08-10T14:52:02.592Z,101887.88
2022-08-10T14:54:34.918Z,101889.28
2022-08-10T14:57:11.242Z,101888.09
2022-08-10T15:00:25.133Z,101887.97
2022-08-10T15:02:55.873Z,101890.28
2022-08-10T15:05:39.979Z,101890.03
2022-08-10T15:08:12.107Z,101887.47
2022-08-10T15:10:42.174Z,101873.19
2022-08-10T15:13:33.472Z,101877.53
2022-08-10T15:16:13.078Z,101882.13
2022-08-10T15:18:57.854Z,101869.00
2022-08-10T15:21:43.438Z,101874.34
2022-08-10T15:24:36.612Z,101871.47
2022-08-10T15:27:08.961Z,101870.91
2022-08-10T15:29:56.774Z,101862.50
2022-08-10T15:32:52.536Z,101858.28
2022-08-10T15:35:42.001Z,101857.22
2022-08-10T15:38:11.138Z,101849.06
2022-08-10T15:40:52.187Z,101853.31
2022-08-10T15:43:24.889Z,101841.81
2022-08-10T15:46:00.013Z,101843.38
2022-08-10T15:48:32.669Z,101828.97
2022-08-10T15:51:07.512Z,101826.84
2022-08-10T15:53:46.942Z,101822.19
2022-08-10T15:56:28.374Z,101822.22
2022-08-10T15:59:08.268Z,101821.31
2022-08-10T16:02:14.621Z,101812.19
2022-08-10T16:04:37.159Z,101812.34
2022-08-10T16:07:10.542Z,101812.91
2022-08-10T16:10:22.540Z,101813.59
2022-08-10T16:12:40.350Z,101812.13
2022-08-10T16:15:13.714Z,101806.53
2022-08-10T16:17:55.485Z,101812.53
2022-08-10T16:20:31.344Z,101812.69
2022-08-10T16:23:04.897Z,101812.53
2022-08-10T16:25:51.338Z,101806.03
2022-08-10T16:28:24.112Z,101799.22
2022-08-10T16:30:55.359Z,101798.72
2022-08-10T16:33:26.227Z,101797.75
2022-08-10T16:36:18.775Z,101799.75
2022-08-10T16:38:51.432Z,101799.91
2022-08-10T16:42:02.666Z,101789.44
2022-08-10T16:44:12.903Z,101798.06
2022-08-10T16:46:45.705Z,101797.56
2022-08-10T16:49:18.504Z,101784.75
2022-08-10T16:51:52.869Z,101793.22
2022-08-10T16:54:27.517Z,101793.63
2022-08-10T16:57:02.357Z,101784.63
2022-08-10T16:59:38.997Z,101787.34
2022-08-10T17:02:09.100Z,101790.03
2022-08-10T17:04:47.319Z,101779.09
2022-08-10T17:07:18.842Z,101779.13
2022-08-10T17:09:58.608Z,101777.47
2022-08-10T17:12:29.738Z,101769.19
2022-08-10T17:15:09.432Z,101780.41
2022-08-10T17:17:43.115Z,101774.00
2022-08-10T17:20:32.141Z,101780.63
2022-08-10T17:23:14.194Z,101778.81
2022-08-10T17:25:50.726Z,101777.69
2022-08-10T17:28:33.046Z,101763.63
2022-08-10T17:31:24.022Z,101762.81
2022-08-10T17:34:00.609Z,101766.69
2022-08-10T17:36:34.934Z,101759.66
2022-08-10T17:39:04.456Z,101756.78
2022-08-10T17:41:36.809Z,101752.34
2022-08-10T17:44:08.062Z,101746.78
2022-08-10T17:46:39.937Z,101747.66
2022-08-10T17:49:10.783Z,101744.22
2022-08-10T17:51:40.909Z,101736.75
2022-08-10T17:54:16.362Z,101742.06
2022-08-10T17:56:47.657Z,101738.63
2022-08-10T17:59:17.189Z,101736.69
2022-08-10T18:01:58.359Z,101743.94
2022-08-10T18:04:34.202Z,101748.47
2022-08-10T18:07:11.466Z,101735.00
2022-08-10T18:09:43.544Z,101738.34
2022-08-10T18:12:18.674Z,101736.28
2022-08-10T18:14:51.371Z,101729.97
2022-08-10T18:17:23.013Z,101732.44
2022-08-10T18:19:55.595Z,101734.41
2022-08-10T18:22:25.241Z,101738.19
2022-08-10T18:24:55.339Z,101736.91
2022-08-10T18:28:01.656Z,101732.94
2022-08-10T18:30:18.846Z,101731.31
2022-08-10T18:32:50.587Z,101734.97
2022-08-10T18:35:20.678Z,101732.28
2022-08-10T18:37:52.172Z,101738.72
2022-08-10T18:40:21.284Z,101732.25
2022-08-10T18:44:06.777Z,101735.63
2022-08-10T18:46:00.121Z,101734.16
2022-08-10T18:48:38.638Z,101735.72
2022-08-10T18:51:08.948Z,101741.72
2022-08-10T18:53:41.355Z,101742.75
2022-08-10T18:56:19.422Z,101736.72
2022-08-10T18:59:09.935Z,101746.09
2022-08-10T19:02:08.307Z,101744.34
2022-08-10T19:04:56.510Z,101747.06
2022-08-10T19:07:42.714Z,101741.22
2022-08-10T19:10:25.250Z,101736.84
2022-08-10T19:13:01.031Z,101739.59
2022-08-10T19:15:40.324Z,101749.25
2022-08-10T19:18:33.032Z,101743.91
2022-08-10T19:21:12.794Z,101726.81
2022-08-10T19:24:00.469Z,101727.59
2022-08-10T19:26:44.015Z,101733.88
2022-08-10T19:30:09.561Z,101730.47
2022-08-10T19:32:33.534Z,101733.59
2022-08-10T19:35:09.137Z,101732.47
2022-08-10T19:37:45.027Z,101735.88
2022-08-10T19:40:44.083Z,101731.72
2022-08-10T19:44:00.480Z,101742.13
2022-08-10T19:46:19.335Z,101738.56
2022-08-10T19:49:00.250Z,101740.94
2022-08-10T19:51:38.267Z,101749.47
2022-08-10T19:54:14.859Z,101748.88
2022-08-10T19:57:02.057Z,101752.91
2022-08-10T20:00:16.935Z,101748.25
2022-08-10T20:02:33.502Z,101752.06
2022-08-10T20:05:09.329Z,101752.50
2022-08-10T20:07:48.495Z,101752.91
2022-08-10T20:10:22.955Z,101746.78
2022-08-10T20:12:56.788Z,101747.59
2022-08-10T20:15:41.604Z,101752.41
2022-08-10T20:18:20.227Z,101749.00
2022-08-10T20:20:53.091Z,101750.91
2022-08-10T20:23:25.269Z,101759.13
2022-08-10T20:25:58.541Z,101770.28
2022-08-10T20:28:36.700Z,101768.41
2022-08-10T20:31:11.608Z,101773.88
2022-08-10T20:34:00.661Z,101771.13
2022-08-10T20:36:34.949Z,101775.59
2022-08-10T20:39:17.900Z,101780.25
2022-08-10T20:41:58.796Z,101780.63
2022-08-10T20:44:39.429Z,101788.44
2022-08-10T20:47:13.006Z,101780.19
2022-08-10T20:49:49.734Z,101782.31
2022-08-10T20:52:20.221Z,101783.97
2022-08-10T20:54:52.496Z,101785.44
2022-08-10T20:57:54.790Z,101781.44
2022-08-10T21:00:25.302Z,101788.19
2022-08-10T21:03:21.086Z,101784.81
2022-08-10T21:06:00.374Z,101790.09
2022-08-10T21:08:44.332Z,101781.44
2022-08-10T21:11:22.355Z,101781.44
2022-08-10T21:14:13.348Z,101778.28
2022-08-10T21:16:50.678Z,101785.38
2022-08-10T21:19:39.466Z,101779.25
2022-08-10T21:22:22.445Z,101778.03
2022-08-10T21:25:02.178Z,101770.56
2022-08-10T21:27:55.320Z,101769.06
2022-08-10T21:30:37.778Z,101771.78
2022-08-10T21:33:12.040Z,101768.81
2022-08-10T21:35:45.095Z,101772.38
2022-08-10T21:38:24.340Z,101768.94
2022-08-10T21:41:56.941Z,101768.47
2022-08-10T21:44:53.089Z,101772.84
2022-08-10T21:48:06.948Z,101775.06
2022-08-10T21:51:09.407Z,101765.50
2022-08-10T21:54:07.477Z,101759.72
2022-08-10T21:57:01.858Z,101768.28
2022-08-10T21:59:56.436Z,101765.09
2022-08-10T22:02:50.334Z,101762.09
2022-08-10T22:05:42.762Z,101763.28
2022-08-10T22:08:31.536Z,101761.84
2022-08-10T22:11:21.578Z,101767.13
2022-08-10T22:14:10.706Z,101765.59
2022-08-10T22:17:05.105Z,101763.81
2022-08-10T22:19:54.856Z,101776.53
2022-08-10T22:22:56.269Z,101771.00
2022-08-10T22:25:57.015Z,101767.31
2022-08-10T22:28:48.736Z,101775.13
2022-08-10T22:31:53.708Z,101771.47
2022-08-10T22:35:02.695Z,101761.09
2022-08-10T22:38:07.690Z,101771.31
2022-08-10T22:40:53.922Z,101767.25
2022-08-10T22:43:45.406Z,101784.38
2022-08-10T22:46:37.822Z,101772.44
2022-08-10T22:49:06.732Z,101777.06
2022-08-10T22:52:01.638Z,101777.03
2022-08-10T22:54:52.722Z,101775.59
2022-08-10T22:57:38.800Z,101768.22
2022-08-10T23:00:15.933Z,101769.22
2022-08-10T23:02:52.397Z,101782.19
2022-08-10T23:05:31.501Z,101771.13
2022-08-10T23:08:05.591Z,101773.56
2022-08-10T23:10:40.317Z,101772.25
2022-08-10T23:13:12.766Z,101766.53
2022-08-10T23:16:16.415Z,101767.63
2022-08-10T23:19:07.091Z,101768.50
2022-08-10T23:22:03.514Z,101765.69
2022-08-10T23:24:37.329Z,101763.00
2022-08-10T23:27:10.305Z,101758.00
2022-08-10T23:39:26.601Z,101758.31
2022-08-10T23:42:04.606Z,101759.47
2022-08-10T23:44:37.254Z,101756.91
2022-08-10T23:47:06.876Z,101755.59
2022-08-10T23:49:36.864Z,101759.16
2022-08-10T23:52:13.596Z,101752.16
2022-08-10T23:54:52.060Z,101754.03
2022-08-10T23:57:23.168Z,101757.63
2022-08-10T23:59:58.185Z,101745.56
